VTBD/DMK METAR and TAF weather

Enter ICAO airport designator
Station Type Date Time Source
VTBD METAR 2024/06/16 09:00 UTC NOAA

VTBD 160900Z 28009KT 230V330 9999 FEW030 36/23 Q1004 NOSIG


Station Type Date Time Source
VTBD Decoded METAR 2024/06/16 09:00 UTC NOAA

Don Muang, Thailand (VTBD) 13-55N 100-36E 12M
Jun 16, 2024 - 05:00 AM EDT / 2024.06.16 0900 UTC
Wind: from the W (280 degrees) at 10 MPH (9 KT) (direction variable):0
Visibility: greater than 7 mile(s):0
Sky conditions: mostly clear
Temperature: 96 F (36 C)
Heat index: 105.4 F (40.8 C):1
Dew Point: 73 F (23 C)
Relative Humidity: 47%
Pressure (altimeter): 29.65 in. Hg (1004 hPa)
ob: VTBD 160900Z 28009KT 230V330 9999 FEW030 36/23 Q1004 NOSIG
cycle: 9

Station Type Date Time Source
VTBD TAF 2024/06/16 06:36 UTC NOAA